createdAt,value
2022-11-20T00:02:11.650Z,2.80
2022-11-20T00:04:45.788Z,2.81
2022-11-20T00:07:18.677Z,2.86
2022-11-20T00:09:50.796Z,2.81
2022-11-20T00:12:22.866Z,2.78
2022-11-20T00:14:54.882Z,2.74
2022-11-20T00:17:26.760Z,2.75
2022-11-20T00:19:58.845Z,2.73
2022-11-20T00:22:30.838Z,2.70
2022-11-20T00:25:02.996Z,2.69
2022-11-20T00:27:35.500Z,2.76
2022-11-20T00:30:15.134Z,2.50
2022-11-20T00:32:48.999Z,2.32
2022-11-20T00:35:20.992Z,2.45
2022-11-20T00:37:52.892Z,2.59
2022-11-20T00:40:26.415Z,2.51
2022-11-20T00:42:58.366Z,2.52
2022-11-20T00:45:30.239Z,2.38
2022-11-20T00:48:01.999Z,2.58
2022-11-20T00:50:33.898Z,2.57
2022-11-20T00:53:05.642Z,2.33
2022-11-20T00:55:37.878Z,2.40
2022-11-20T00:58:14.158Z,2.51
2022-11-20T01:00:46.512Z,2.55
2022-11-20T01:03:24.051Z,2.56
2022-11-20T01:06:03.841Z,2.52
2022-11-20T01:08:38.151Z,2.54
2022-11-20T01:11:13.384Z,2.51
2022-11-20T01:13:46.681Z,2.45
2022-11-20T01:16:21.461Z,2.48
2022-11-20T01:18:57.644Z,2.47
2022-11-20T01:21:34.545Z,2.46
2022-11-20T01:24:13.177Z,2.57
2022-11-20T01:26:46.597Z,2.41
2022-11-20T01:29:22.073Z,2.56
2022-11-20T01:31:55.408Z,2.50
2022-11-20T01:34:27.822Z,2.53
2022-11-20T01:36:59.768Z,2.60
2022-11-20T01:39:32.197Z,2.59
2022-11-20T01:42:22.859Z,2.47
2022-11-20T01:45:00.260Z,2.11
2022-11-20T01:47:36.902Z,2.18
2022-11-20T01:50:15.536Z,2.19
2022-11-20T01:52:55.491Z,2.15
2022-11-20T01:55:33.689Z,2.04
2022-11-20T01:58:06.809Z,2.18
2022-11-20T02:00:38.944Z,2.25
2022-11-20T02:03:15.815Z,2.06
2022-11-20T02:05:53.614Z,2.24
2022-11-20T02:08:27.051Z,2.26
2022-11-20T02:11:01.882Z,2.29
2022-11-20T02:13:47.518Z,2.20
2022-11-20T02:16:24.342Z,2.02
2022-11-20T02:18:59.695Z,2.02
2022-11-20T02:21:45.969Z,1.97
2022-11-20T02:24:21.630Z,2.19
2022-11-20T02:26:56.521Z,2.11
2022-11-20T02:29:34.018Z,2.12
2022-11-20T02:32:07.009Z,2.07
2022-11-20T02:34:38.727Z,2.12
2022-11-20T02:37:10.727Z,2.08
2022-11-20T02:39:44.388Z,2.00
2022-11-20T02:42:16.281Z,2.02
2022-11-20T02:44:49.103Z,1.98
2022-11-20T02:47:21.499Z,1.95
2022-11-20T02:49:53.339Z,1.87
2022-11-20T02:52:25.591Z,1.80
2022-11-20T02:54:58.236Z,1.79
2022-11-20T02:57:30.143Z,1.80
2022-11-20T03:00:02.236Z,1.83
2022-11-20T03:02:35.719Z,2.03
2022-11-20T03:05:09.469Z,2.03
2022-11-20T03:07:41.331Z,2.11
2022-11-20T03:10:13.862Z,2.12
2022-11-20T03:12:48.624Z,2.12
2022-11-20T03:15:21.828Z,2.21
2022-11-20T03:18:02.485Z,2.22
2022-11-20T03:20:36.372Z,2.15
2022-11-20T03:23:08.425Z,2.35
2022-11-20T03:25:40.392Z,2.40
2022-11-20T03:28:12.709Z,2.16
2022-11-20T03:30:46.217Z,2.14
2022-11-20T03:33:18.115Z,2.10
2022-11-20T03:35:50.295Z,2.18
2022-11-20T03:38:22.218Z,2.26
2022-11-20T03:41:00.398Z,2.23
2022-11-20T03:43:34.573Z,2.28
2022-11-20T03:46:06.367Z,2.25
2022-11-20T03:48:38.292Z,2.25
2022-11-20T03:51:16.264Z,2.44
2022-11-20T03:53:52.263Z,2.41
2022-11-20T03:56:28.616Z,2.38
2022-11-20T03:59:01.159Z,2.44
2022-11-20T04:01:36.634Z,2.54
2022-11-20T04:04:10.873Z,2.45
2022-11-20T04:06:43.304Z,2.54
2022-11-20T04:09:15.483Z,2.60
2022-11-20T04:11:47.928Z,2.62
2022-11-20T04:14:20.483Z,2.65
2022-11-20T04:16:54.371Z,2.69
2022-11-20T04:19:26.630Z,2.65
2022-11-20T04:21:58.434Z,2.70
2022-11-20T04:24:31.186Z,2.72
2022-11-20T04:27:02.950Z,2.74
2022-11-20T04:29:34.768Z,2.76
2022-11-20T04:32:06.700Z,2.80
2022-11-20T04:34:38.382Z,2.74
2022-11-20T04:37:10.118Z,2.72
2022-11-20T04:39:42.038Z,2.77
2022-11-20T04:42:33.413Z,2.85
2022-11-20T04:45:07.919Z,2.81
2022-11-20T04:47:41.046Z,2.80
2022-11-20T04:50:15.100Z,2.89
2022-11-20T04:52:46.968Z,2.86
2022-11-20T04:55:19.700Z,2.88
2022-11-20T04:57:54.689Z,2.81
2022-11-20T05:00:26.859Z,2.83
2022-11-20T05:02:59.226Z,2.84
2022-11-20T05:05:31.280Z,2.83
2022-11-20T05:08:04.976Z,2.71
2022-11-20T05:10:37.074Z,2.81
2022-11-20T05:13:09.684Z,2.87
2022-11-20T05:15:41.820Z,2.78
2022-11-20T05:18:14.235Z,2.82
2022-11-20T05:20:46.135Z,2.86
2022-11-20T05:23:18.193Z,2.77
2022-11-20T05:25:52.356Z,2.75
2022-11-20T05:28:31.058Z,2.81
2022-11-20T05:31:12.924Z,2.78
2022-11-20T05:33:47.591Z,2.71
2022-11-20T05:36:20.690Z,2.67
2022-11-20T05:38:58.027Z,2.78
2022-11-20T05:41:36.881Z,2.82
2022-11-20T05:44:09.018Z,2.74
2022-11-20T05:46:40.906Z,2.70
2022-11-20T05:49:13.749Z,2.72
2022-11-20T05:51:48.827Z,2.69
2022-11-20T05:54:20.879Z,2.70
2022-11-20T05:56:53.069Z,2.61
2022-11-20T05:59:24.830Z,2.63
2022-11-20T06:01:57.565Z,2.71
2022-11-20T06:04:30.514Z,2.71
2022-11-20T06:07:02.920Z,2.79
2022-11-20T06:09:36.787Z,2.63
2022-11-20T06:12:10.558Z,2.60
2022-11-20T06:14:42.636Z,2.61
2022-11-20T06:17:15.463Z,2.63
2022-11-20T06:19:47.568Z,2.44
2022-11-20T06:22:19.639Z,2.62
2022-11-20T06:24:51.430Z,2.56
2022-11-20T06:27:23.995Z,2.60
2022-11-20T06:29:59.784Z,2.63
2022-11-20T06:32:32.162Z,2.36
2022-11-20T06:35:04.436Z,2.44
2022-11-20T06:37:36.208Z,2.57
2022-11-20T06:40:22.865Z,2.58
2022-11-20T06:42:57.203Z,2.54
2022-11-20T06:45:29.953Z,2.55
2022-11-20T06:48:03.464Z,2.51
2022-11-20T06:50:35.865Z,2.53
2022-11-20T06:53:08.925Z,2.29
2022-11-20T06:55:46.354Z,2.25
2022-11-20T06:58:20.579Z,2.54
2022-11-20T07:00:52.743Z,2.32
2022-11-20T07:03:26.106Z,2.41
2022-11-20T07:06:00.104Z,2.49
2022-11-20T07:08:33.139Z,2.34
2022-11-20T07:11:08.776Z,2.21
2022-11-20T07:13:40.630Z,2.21
2022-11-20T07:16:13.078Z,2.25
2022-11-20T07:18:50.191Z,2.17
2022-11-20T07:21:25.209Z,2.18
2022-11-20T07:23:58.684Z,2.15
2022-11-20T07:26:30.508Z,1.94
2022-11-20T07:29:02.292Z,2.06
2022-11-20T07:31:34.326Z,2.14
2022-11-20T07:34:06.659Z,2.20
2022-11-20T07:36:38.679Z,2.14
2022-11-20T07:39:10.402Z,2.46
2022-11-20T07:41:42.440Z,2.50
2022-11-20T07:44:14.167Z,2.42
2022-11-20T07:46:46.630Z,2.35
2022-11-20T07:49:18.555Z,2.45
2022-11-20T07:51:55.074Z,2.41
2022-11-20T07:54:31.054Z,2.53
2022-11-20T07:57:02.835Z,2.56
2022-11-20T07:59:35.033Z,2.57
2022-11-20T08:02:07.564Z,2.42
2022-11-20T08:04:40.104Z,2.47
2022-11-20T08:07:12.055Z,2.46
2022-11-20T08:09:44.347Z,2.53
2022-11-20T08:12:56.266Z,2.66
2022-11-20T08:15:28.011Z,2.55
2022-11-20T08:21:00.741Z,2.45
2022-11-20T08:23:34.282Z,2.62
2022-11-20T08:26:07.114Z,2.62
2022-11-20T08:28:39.199Z,2.69
2022-11-20T08:31:12.066Z,2.65
2022-11-20T08:33:44.030Z,2.74
2022-11-20T08:36:16.335Z,2.78
2022-11-20T08:38:52.863Z,2.76
2022-11-20T08:41:27.934Z,2.80
2022-11-20T08:44:05.000Z,2.68
2022-11-20T08:46:39.208Z,2.53
2022-11-20T08:49:13.258Z,2.54
2022-11-20T08:51:46.423Z,2.56
2022-11-20T08:54:21.115Z,2.75
2022-11-20T08:56:53.012Z,2.75
2022-11-20T08:59:50.667Z,2.64
2022-11-20T09:02:17.651Z,2.90
2022-11-20T09:04:49.625Z,3.08
2022-11-20T09:07:21.814Z,3.18
2022-11-20T09:10:09.970Z,3.31
2022-11-20T09:12:46.054Z,3.20
2022-11-20T09:15:18.776Z,3.49
2022-11-20T09:17:55.459Z,3.36
2022-11-20T09:20:32.508Z,3.27
2022-11-20T09:23:04.469Z,3.40
2022-11-20T09:25:37.173Z,3.41
2022-11-20T09:28:11.676Z,3.33
2022-11-20T09:30:43.695Z,3.28
2022-11-20T09:33:15.670Z,3.32
2022-11-20T09:35:48.521Z,3.35
2022-11-20T09:38:20.240Z,3.41
2022-11-20T09:40:59.180Z,3.53
2022-11-20T09:43:43.507Z,3.50
2022-11-20T09:46:22.782Z,3.51
2022-11-20T09:49:11.836Z,3.53
2022-11-20T09:51:52.734Z,3.46
2022-11-20T09:54:28.692Z,3.36
2022-11-20T09:57:06.593Z,3.49
2022-11-20T09:59:43.919Z,3.50
2022-11-20T10:02:38.438Z,3.22
2022-11-20T10:05:18.540Z,3.46
2022-11-20T10:08:01.772Z,3.59
2022-11-20T10:10:43.992Z,3.54
2022-11-20T10:13:33.904Z,3.68
2022-11-20T10:16:21.213Z,3.70
2022-11-20T10:19:09.364Z,3.62
2022-11-20T10:21:53.510Z,3.64
2022-11-20T10:24:53.042Z,3.79
2022-11-20T10:28:04.372Z,3.58
2022-11-20T10:30:42.549Z,3.46
2022-11-20T10:33:19.153Z,3.62
2022-11-20T10:35:57.046Z,3.72
2022-11-20T10:38:37.631Z,3.74
2022-11-20T10:47:35.602Z,3.84
2022-11-20T10:50:18.991Z,3.91
2022-11-20T10:53:05.254Z,3.98
2022-11-20T10:55:47.103Z,3.99
2022-11-20T10:58:29.420Z,4.05
2022-11-20T11:01:15.719Z,4.14
2022-11-20T11:03:48.561Z,4.22
2022-11-20T11:06:28.081Z,4.18
2022-11-20T11:09:05.012Z,4.10
2022-11-20T11:11:37.501Z,4.32
2022-11-20T11:14:11.184Z,4.15
2022-11-20T11:16:53.611Z,4.08
2022-11-20T11:19:27.340Z,4.18
2022-11-20T11:22:01.543Z,4.04
2022-11-20T11:24:42.214Z,3.98
2022-11-20T11:27:19.165Z,4.14
2022-11-20T11:29:52.397Z,4.11
2022-11-20T11:32:25.196Z,4.09
2022-11-20T11:35:07.475Z,4.12
2022-11-20T11:37:42.077Z,4.20
2022-11-20T11:40:23.970Z,4.19
2022-11-20T11:43:03.318Z,4.18
2022-11-20T11:45:35.597Z,4.07
2022-11-20T11:48:12.270Z,4.05
2022-11-20T11:50:53.669Z,4.04
2022-11-20T11:53:29.839Z,3.99
2022-11-20T11:56:10.694Z,4.09
2022-11-20T11:58:49.600Z,3.92
2022-11-20T12:01:34.542Z,3.95
2022-11-20T12:04:13.056Z,3.91
2022-11-20T12:06:50.699Z,3.78
2022-11-20T12:09:30.654Z,3.89
2022-11-20T12:12:12.797Z,3.92
2022-11-20T12:14:48.430Z,3.98
2022-11-20T12:17:20.944Z,3.97
2022-11-20T12:19:53.745Z,3.89
2022-11-20T12:22:36.883Z,3.72
2022-11-20T12:25:14.014Z,3.81
2022-11-20T12:28:22.385Z,3.90
2022-11-20T12:31:06.324Z,3.97
2022-11-20T12:33:53.885Z,3.92
2022-11-20T12:36:38.403Z,3.88
2022-11-20T12:39:39.129Z,3.86
2022-11-20T12:43:14.809Z,3.95
2022-11-20T12:46:04.882Z,3.99
2022-11-20T12:49:04.425Z,4.05
2022-11-20T12:51:54.047Z,3.96
2022-11-20T12:55:11.624Z,3.96
2022-11-20T12:57:53.754Z,4.07
2022-11-20T13:00:27.436Z,4.03
2022-11-20T13:03:33.632Z,4.04
2022-11-20T13:06:15.983Z,4.06
2022-11-20T13:08:55.432Z,4.01
2022-11-20T13:11:35.758Z,4.01
2022-11-20T13:14:22.127Z,3.89
2022-11-20T13:17:05.897Z,3.97
2022-11-20T13:19:39.939Z,3.94
2022-11-20T13:22:12.929Z,4.02
2022-11-20T13:24:54.879Z,4.11
2022-11-20T13:27:27.889Z,4.15
2022-11-20T13:30:19.779Z,4.19
2022-11-20T13:33:01.873Z,4.22
2022-11-20T13:35:37.840Z,4.25
2022-11-20T13:38:13.972Z,4.25
2022-11-20T13:40:57.669Z,4.21
2022-11-20T13:43:40.378Z,4.25
2022-11-20T13:46:13.255Z,4.26
2022-11-20T13:48:47.151Z,4.28
2022-11-20T13:51:36.481Z,4.30
2022-11-20T13:54:30.078Z,4.18
2022-11-20T13:57:13.674Z,4.18
2022-11-20T13:59:59.523Z,4.21
2022-11-20T14:02:33.133Z,4.18
2022-11-20T14:05:19.481Z,4.13
2022-11-20T14:07:54.932Z,4.17
2022-11-20T14:10:32.389Z,4.20
2022-11-20T14:13:20.839Z,4.21
2022-11-20T14:16:00.619Z,4.22
2022-11-20T14:18:32.641Z,4.26
2022-11-20T14:21:06.420Z,4.26
2022-11-20T14:23:40.114Z,4.27
2022-11-20T14:26:17.265Z,4.27
2022-11-20T14:28:53.256Z,4.27
2022-11-20T14:31:29.091Z,4.25
2022-11-20T14:34:01.056Z,4.28
2022-11-20T14:36:32.889Z,4.28
2022-11-20T14:39:04.965Z,4.15
2022-11-20T14:41:37.018Z,4.27
2022-11-20T14:44:13.504Z,4.28
2022-11-20T14:46:46.112Z,4.28
2022-11-20T14:49:19.216Z,4.28
2022-11-20T14:52:03.902Z,4.24
2022-11-20T14:54:45.409Z,4.26
2022-11-20T14:57:29.258Z,4.26
2022-11-20T15:00:27.475Z,4.28
2022-11-20T15:02:59.395Z,4.27
2022-11-20T15:05:49.136Z,4.25
2022-11-20T15:08:21.826Z,4.26
2022-11-20T15:10:56.273Z,4.25
2022-11-20T15:13:35.705Z,4.24
2022-11-20T15:16:17.152Z,4.24
2022-11-20T15:18:49.841Z,4.24
2022-11-20T15:21:23.280Z,4.25
2022-11-20T15:23:56.542Z,4.24
2022-11-20T15:26:30.052Z,4.22
2022-11-20T15:29:02.714Z,4.21
2022-11-20T15:31:36.190Z,4.19
2022-11-20T15:34:15.556Z,4.20
2022-11-20T15:36:48.402Z,4.18
2022-11-20T15:39:20.304Z,4.16
2022-11-20T15:41:52.495Z,4.13
2022-11-20T15:44:25.233Z,4.02
2022-11-20T15:46:58.214Z,4.08
2022-11-20T15:49:30.720Z,4.04
2022-11-20T15:52:02.747Z,4.02
2022-11-20T15:54:34.652Z,4.01
2022-11-20T15:57:07.218Z,3.99
2022-11-20T15:59:41.012Z,3.99
2022-11-20T16:02:19.210Z,3.99
2022-11-20T16:04:52.110Z,4.01
2022-11-20T16:07:24.106Z,4.03
2022-11-20T16:09:58.286Z,4.01
2022-11-20T16:12:48.516Z,3.94
2022-11-20T16:15:40.757Z,4.00
2022-11-20T16:18:16.503Z,4.00
2022-11-20T16:20:51.445Z,3.99
2022-11-20T16:23:24.358Z,4.00
2022-11-20T16:25:56.487Z,3.92
2022-11-20T16:28:28.655Z,4.00
2022-11-20T16:31:09.433Z,4.01
2022-11-20T16:33:41.733Z,4.02
2022-11-20T16:36:16.193Z,4.02
2022-11-20T16:38:48.983Z,4.03
2022-11-20T16:41:21.005Z,4.04
2022-11-20T16:43:58.307Z,4.03
2022-11-20T16:46:33.384Z,4.03
2022-11-20T16:49:07.585Z,4.03
2022-11-20T16:51:39.657Z,4.02
2022-11-20T16:54:19.507Z,3.99
2022-11-20T16:56:54.697Z,3.93
2022-11-20T16:59:26.872Z,3.96
2022-11-20T17:01:58.998Z,3.95
2022-11-20T17:04:31.225Z,3.94
2022-11-20T17:07:07.841Z,3.94
2022-11-20T17:09:42.012Z,3.91
2022-11-20T17:12:16.886Z,3.89
2022-11-20T17:14:49.163Z,3.91
2022-11-20T17:17:21.504Z,3.91
2022-11-20T17:19:53.426Z,3.93
2022-11-20T17:22:25.316Z,3.95
2022-11-20T17:24:57.407Z,3.96
2022-11-20T17:27:30.423Z,3.96
2022-11-20T17:30:02.146Z,3.96
2022-11-20T17:32:34.243Z,3.97
2022-11-20T17:35:06.839Z,3.98
2022-11-20T17:37:38.739Z,3.98
2022-11-20T17:40:14.570Z,3.98
2022-11-20T17:42:46.767Z,3.96
2022-11-20T17:45:19.410Z,3.92
2022-11-20T17:47:51.704Z,3.90
2022-11-20T17:50:23.977Z,3.85
2022-11-20T17:52:55.888Z,3.84
2022-11-20T17:55:51.459Z,3.80
2022-11-20T17:58:30.748Z,3.76
2022-11-20T18:01:09.583Z,3.72
2022-11-20T18:03:42.926Z,3.71
2022-11-20T18:06:17.195Z,3.71
2022-11-20T18:08:50.232Z,3.71
2022-11-20T18:11:24.655Z,3.62
2022-11-20T18:14:16.343Z,3.69
2022-11-20T18:16:52.305Z,3.68
2022-11-20T18:19:31.459Z,3.65
2022-11-20T18:22:08.245Z,3.53
2022-11-20T18:24:42.506Z,3.63
2022-11-20T18:27:20.473Z,3.63
2022-11-20T18:29:53.957Z,3.59
2022-11-20T18:32:26.606Z,3.57
2022-11-20T18:36:16.161Z,3.66
2022-11-20T18:38:53.853Z,3.59
2022-11-20T18:41:50.178Z,3.59
2022-11-20T18:44:43.033Z,3.61
2022-11-20T18:47:21.019Z,3.60
2022-11-20T18:49:57.560Z,3.55
2022-11-20T18:52:34.859Z,3.52
2022-11-20T18:55:09.486Z,3.41
2022-11-20T18:57:40.323Z,3.45
2022-11-20T19:00:16.617Z,3.44
2022-11-20T19:02:56.263Z,3.43
2022-11-20T19:05:28.020Z,3.48
2022-11-20T19:08:00.734Z,3.46
2022-11-20T19:10:39.491Z,3.44
2022-11-20T19:13:12.774Z,3.43
2022-11-20T19:15:45.016Z,3.40
2022-11-20T19:18:17.431Z,3.35
2022-11-20T19:20:52.683Z,3.31
2022-11-20T19:23:26.927Z,3.27
2022-11-20T19:26:03.625Z,3.29
2022-11-20T19:28:41.173Z,3.28
2022-11-20T19:31:17.266Z,3.34
2022-11-20T19:33:57.542Z,3.31
2022-11-20T19:36:34.634Z,3.21
2022-11-20T19:39:14.227Z,3.33
2022-11-20T19:41:48.155Z,3.24
2022-11-20T19:44:20.815Z,3.13
2022-11-20T19:46:53.595Z,3.23
2022-11-20T19:49:28.532Z,3.30
2022-11-20T19:52:04.632Z,3.20
2022-11-20T19:54:38.080Z,3.28
2022-11-20T19:57:11.514Z,3.26
2022-11-20T19:59:44.775Z,3.29
2022-11-20T20:02:18.874Z,3.28
2022-11-20T20:04:51.504Z,3.19
2022-11-20T20:07:26.319Z,3.31
2022-11-20T20:09:58.429Z,3.23
2022-11-20T20:12:32.199Z,3.13
2022-11-20T20:15:09.697Z,3.28
2022-11-20T20:17:43.480Z,3.29
2022-11-20T20:20:19.452Z,3.26
2022-11-20T20:22:53.312Z,3.26
2022-11-20T20:25:26.093Z,3.24
2022-11-20T20:27:59.718Z,3.22
2022-11-20T20:30:31.530Z,3.18
2022-11-20T20:33:08.351Z,3.14
2022-11-20T20:35:44.514Z,3.10
2022-11-20T20:38:16.984Z,3.05
2022-11-20T20:40:52.940Z,2.99
2022-11-20T20:43:25.157Z,2.97
2022-11-20T20:45:57.844Z,2.90
2022-11-20T20:48:30.865Z,2.88
2022-11-20T20:51:08.706Z,2.83
2022-11-20T20:53:41.187Z,2.76
2022-11-20T20:56:14.132Z,2.68
2022-11-20T20:58:48.102Z,2.59
2022-11-20T21:01:23.030Z,2.44
2022-11-20T21:03:56.556Z,2.43
2022-11-20T21:06:28.832Z,2.47
2022-11-20T21:09:02.996Z,2.38
2022-11-20T21:11:35.562Z,2.34
2022-11-20T21:14:07.826Z,2.37
2022-11-20T21:16:44.294Z,2.34
2022-11-20T21:19:16.779Z,2.20
2022-11-20T21:22:04.004Z,2.18
2022-11-20T21:24:38.132Z,2.19
2022-11-20T21:27:10.114Z,2.20
2022-11-20T21:29:42.077Z,2.18
2022-11-20T21:32:13.946Z,1.95
2022-11-20T21:34:50.053Z,2.15
2022-11-20T21:37:30.218Z,2.15
2022-11-20T21:40:04.077Z,1.98
2022-11-20T21:42:36.085Z,2.10
2022-11-20T21:45:09.770Z,2.11
2022-11-20T21:47:41.608Z,2.12
2022-11-20T21:50:13.552Z,2.04
2022-11-20T21:52:45.662Z,2.10
2022-11-20T21:55:17.812Z,2.08
2022-11-20T21:57:49.639Z,2.03
2022-11-20T22:00:22.370Z,2.07
2022-11-20T22:02:54.473Z,2.11
2022-11-20T22:05:26.476Z,2.18
2022-11-20T22:07:58.606Z,2.18
2022-11-20T22:10:30.353Z,2.18
2022-11-20T22:13:17.359Z,2.19
2022-11-20T22:16:04.355Z,2.17
2022-11-20T22:18:36.477Z,2.13
2022-11-20T22:21:09.332Z,2.15
2022-11-20T22:23:42.064Z,2.14
2022-11-20T22:26:16.082Z,2.15
2022-11-20T22:28:50.154Z,2.14
2022-11-20T22:31:23.579Z,2.10
2022-11-20T22:33:57.742Z,2.05
2022-11-20T22:36:34.013Z,2.02
2022-11-20T22:39:08.811Z,2.01
2022-11-20T22:41:40.532Z,1.95
2022-11-20T22:44:17.283Z,1.92
2022-11-20T22:46:49.032Z,1.84
2022-11-20T22:49:20.917Z,1.76
2022-11-20T22:51:52.723Z,1.76
2022-11-20T22:54:25.698Z,1.67
2022-11-20T22:56:58.654Z,1.66
2022-11-20T22:59:30.459Z,1.68
2022-11-20T23:02:02.292Z,1.65
2022-11-20T23:04:34.852Z,1.61
2022-11-20T23:07:06.579Z,1.64
2022-11-20T23:09:38.984Z,1.54
2022-11-20T23:12:10.929Z,1.63
2022-11-20T23:14:42.661Z,1.63
2022-11-20T23:17:14.599Z,1.62
2022-11-20T23:19:46.366Z,1.61
2022-11-20T23:22:18.061Z,1.57
2022-11-20T23:24:50.847Z,1.59
2022-11-20T23:27:26.012Z,1.60
2022-11-20T23:30:00.338Z,1.58
2022-11-20T23:32:32.593Z,1.59
2022-11-20T23:35:04.521Z,1.57
2022-11-20T23:37:37.137Z,1.42
2022-11-20T23:40:11.034Z,1.47
2022-11-20T23:43:03.335Z,1.39
2022-11-20T23:45:40.673Z,1.43
2022-11-20T23:48:13.548Z,1.45
2022-11-20T23:50:46.211Z,1.49
2022-11-20T23:53:19.682Z,1.50
2022-11-20T23:55:53.418Z,1.42
2022-11-20T23:58:27.115Z,1.51
